Latest Weather Observations for Karratha

IDW60801

Issued at 10:04 am WST Wednesday 28 June 2017 (issued every 30 minutes, with the page automatically refreshed every 10 minutes)

About weather observations | Map of weather stations | Latest weather observations for WA | Other Formats
Station Details ID: 004083 Name: KARRATHA AERO Lat: -20.71 Lon: 116.77 Height: 5.3 m
Data from the previous 72 hours. | See also: Recent months at Karratha
Date/Time
WST
Temp
°C
App
Temp
°C
Dew
Point
°C
Rel
Hum
%
Delta-T
°C
Wind Press
QNH
hPa
Press
MSL
hPa
Rain since
9am
mm
Dir  Spd
km/h
Gust
km/h
Spd
kts
Gust
kts
28/10:00am 19.4 10.2 3.6 35 7.4 E 41 52 22 28 1022.2 1022.2 0.0
28/09:30am 18.9 9.8 3.9 37 7.1 E 41 57 22 31 1022.6 1022.6 0.0
28/09:00am 18.4 9.3 3.8 38 6.8 ESE 41 54 22 29 1022.4 1022.4 0.0
28/08:30am 17.6 9.3 4.2 41 6.3 ESE 37 50 20 27 1022.3 1022.3 0.0
28/08:00am 16.9 9.0 4.6 44 5.8 E 35 44 19 24 1022.2 1022.2 0.0
28/07:30am 16.4 9.0 4.8 46 5.5 ESE 33 41 18 22 1022.0 1022.0 0.0
28/07:00am 16.1 9.2 4.5 46 5.4 ESE 30 41 16 22 1021.5 1021.5 0.0
28/06:30am 16.3 8.8 4.4 45 5.6 ESE 33 43 18 23 1021.3 1021.3 0.0
28/06:00am 16.0 9.9 4.7 47 5.3 E 26 37 14 20 1021.1 1021.1 0.0
28/05:30am 16.5 9.6 4.5 45 5.6 ESE 30 41 16 22 1021.0 1021.0 0.0
28/05:00am 17.0 9.7 4.3 43 6.0 ESE 32 43 17 23 1020.6 1020.6 0.0
28/04:30am 17.7 9.4 4.3 41 6.3 ESE 37 48 20 26 1020.4 1020.4 0.0
28/04:00am 18.2 9.6 4.4 40 6.5 ESE 39 50 21 27 1020.0 1020.0 0.0
28/03:30am 18.0 12.1 3.9 39 6.6 ESE 24 33 13 18 1020.2 1020.2 0.0
28/03:00am 18.0 12.5 3.9 39 6.6 ESE 22 28 12 15 1019.9 1019.9 0.0
28/02:30am 18.3 12.4 4.1 39 6.7 ESE 24 30 13 16 1019.6 1019.6 0.0
28/02:00am 18.4 12.9 4.2 39 6.7 ESE 22 26 12 14 1019.4 1019.4 0.0
28/01:30am 19.2 13.8 4.6 38 7.0 ESE 22 26 12 14 1019.4 1019.4 0.0
28/01:00am 19.3 13.9 4.3 37 7.2 ESE 22 28 12 15 1019.4 1019.4 0.0
28/12:30am 19.3 13.9 4.6 38 7.1 ESE 22 28 12 15 1019.3 1019.3 0.0
28/12:00am 18.1 13.7 5.0 42 6.3 ESE 17 20 9 11 1019.4 1019.4 0.0
 
Date/Time
WST
Temp
°C
App
Temp
°C
Dew
Point
°C
Rel
Hum
%
Delta-T
°C
Wind Press
QNH
hPa
Press
MSL
hPa
Rain since
9am
mm
Dir  Spd
km/h
Gust
km/h
Spd
kts
Gust
kts
27/11:30pm 16.3 12.9 5.9 50 5.0 ESE 13 15 7 8 1019.5 1019.5 0.0
27/11:00pm 16.2 13.3 6.6 53 4.7 ESE 11 15 6 8 1019.6 1019.6 0.0
27/10:30pm 17.7 16.5 10.3 62 3.9 ESE 7 9 4 5 1019.4 1019.4 0.0
27/10:00pm 17.9 17.9 11.0 64 3.7 SE 2 9 1 5 1019.2 1019.2 0.0
27/09:30pm 17.8 16.7 12.0 69 3.2 SE 9 13 5 7 1018.8 1018.8 0.0
27/09:00pm 17.6 17.9 12.3 71 2.9 SSE 2 7 1 4 1019.0 1019.0 0.0
27/08:30pm 18.6 17.8 13.0 70 3.2 S 9 11 5 6 1018.7 1018.7 0.0
27/08:00pm 18.7 17.9 12.9 69 3.3 SW 9 11 5 6 1018.4 1018.4 0.0
27/07:30pm 20.0 19.8 14.6 71 3.1 WSW 9 11 5 6 1018.1 1018.1 0.0
27/07:00pm 21.0 19.6 14.4 66 3.8 SW 15 19 8 10 1017.9 1017.9 0.0
27/06:30pm 21.3 17.4 3.5 31 8.5 SE 13 13 7 7 1017.5 1017.5 0.0
27/06:00pm 22.1 18.6 3.7 30 8.9 ESE 11 15 6 8 1017.2 1017.2 0.0
27/05:30pm 24.5 21.1 3.8 26 10.2 ESE 11 15 6 8 1016.9 1016.9 0.0
27/05:00pm 25.9 22.2 4.4 25 10.8 SE 13 20 7 11 1016.5 1016.5 0.0
27/04:30pm 26.4 21.8 3.6 23 11.3 SSE 17 22 9 12 1016.2 1016.2 0.0
27/04:00pm 26.5 21.1 2.4 21 11.7 SE 20 28 11 15 1016.1 1016.1 0.0
27/03:30pm 26.9 22.0 2.1 20 12.0 SE 17 24 9 13 1016.0 1016.0 0.0
27/03:00pm 27.1 22.0 2.9 21 11.9 SSE 19 28 10 15 1016.0 1016.0 0.0
27/02:30pm 27.5 23.2 5.1 24 11.5 SSE 17 28 9 15 1016.2 1016.2 0.0
27/02:00pm 26.9 22.7 5.8 26 10.9 SSE 17 30 9 16 1016.4 1016.4 0.0
27/01:30pm 26.1 22.0 6.2 28 10.3 SE 17 26 9 14 1016.8 1016.8 0.0
27/01:00pm 26.5 22.6 7.0 29 10.3 SE 17 28 9 15 1017.2 1017.2 0.0
27/12:30pm 25.5 21.0 7.1 31 9.7 SE 20 26 11 14 1017.7 1017.7 0.0
27/12:00pm 24.7 20.5 7.4 33 9.1 SE 19 26 10 14 1018.2 1018.2 0.0
27/11:30am 24.3 20.5 7.4 34 8.9 ESE 17 26 9 14 1018.7 1018.7 0.0
27/11:00am 24.4 20.1 8.0 35 8.7 ESE 20 28 11 15 1019.1 1019.1 0.0
27/10:30am 22.7 18.6 7.7 38 7.8 ESE 19 26 10 14 1019.5 1019.5 0.0
27/10:00am 22.6 18.5 8.0 39 7.6 ESE 19 24 10 13 1019.8 1019.8 0.0
27/09:30am 21.2 17.2 8.1 43 6.8 ESE 19 28 10 15 1019.9 1019.9 0.0
27/09:00am 19.8 17.3 9.7 52 5.4 E 13 19 7 10 1019.9 1019.9 0.0
27/08:30am 18.9 16.6 9.1 53 5.1 E 11 15 6 8 1019.6 1019.6 0.0
27/08:00am 17.7 16.4 9.3 58 4.4 ENE 6 11 3 6 1019.3 1019.3 0.0
27/07:30am 15.8 13.5 9.0 64 3.5 SE 11 13 6 7 1018.9 1018.9 0.0
27/07:00am 13.7 10.9 8.7 72 2.5 SSE 13 13 7 7 1018.6 1018.6 0.0
27/06:30am 13.3 11.3 8.8 74 2.3 SE 9 11 5 6 1018.2 1018.2 0.0
27/06:00am 13.9 11.7 9.3 74 2.3 SSE 11 11 6 6 1018.0 1018.0 0.0
27/05:30am 14.1 12.7 9.5 74 2.4 SSE 7 9 4 5 1017.8 1017.8 0.0
27/05:00am 14.6 14.7 10.2 75 2.3 CALM 0 0 0 0 1017.7 1017.7 0.0
27/04:30am 14.5 13.4 10.5 77 2.1 SE 7 9 4 5 1017.6 1017.6 0.0
27/04:00am 15.4 13.6 10.8 74 2.4 ESE 11 15 6 8 1017.5 1017.5 0.0
27/03:30am 15.9 14.3 11.5 75 2.4 E 11 13 6 7 1017.4 1017.4 0.0
27/03:00am 17.1 14.1 11.8 71 2.9 E 19 20 10 11 1017.2 1017.2 0.0
27/02:30am 16.9 15.3 12.8 77 2.3 E 13 17 7 9 1017.2 1017.2 0.0
27/02:00am 15.2 14.8 12.5 84 1.5 SE 6 7 3 4 1017.2 1017.2 0.0
27/01:30am 16.2 15.5 13.3 83 1.6 SSE 9 11 5 6 1017.3 1017.3 0.0
27/01:00am 16.3 15.7 13.6 84 1.5 SSE 9 11 5 6 1017.4 1017.4 0.0
27/12:30am 16.4 15.3 14.2 87 1.3 SE 13 15 7 8 1017.7 1017.7 0.0
27/12:00am 16.0 15.0 13.5 85 1.4 SSE 11 13 6 7 1017.5 1017.5 0.0
 
Date/Time
WST
Temp
°C
App
Temp
°C
Dew
Point
°C
Rel
Hum
%
Delta-T
°C
Wind Press
QNH
hPa
Press
MSL
hPa
Rain since
9am
mm
Dir  Spd
km/h
Gust
km/h
Spd
kts
Gust
kts
26/11:30pm 16.6 16.0 13.5 82 1.7 S 9 9 5 5 1017.4 1017.4 0.0
26/11:00pm 17.6 19.0 14.5 82 1.8 CALM 0 6 0 3 1017.5 1017.5 0.0
26/10:30pm 18.1 18.3 14.8 81 1.9 WSW 7 13 4 7 1017.5 1017.5 0.0
26/10:00pm 17.7 19.2 14.6 82 1.8 CALM 0 0 0 0 1017.5 1017.5 0.0
26/09:30pm 18.2 17.6 14.7 80 2.0 SW 11 13 6 7 1017.3 1017.3 0.0
26/09:00pm 19.4 19.0 16.1 81 2.0 WSW 13 15 7 8 1017.1 1017.1 0.0
26/08:30pm 20.4 19.8 15.6 74 2.9 WSW 13 19 7 10 1016.9 1016.9 0.0
26/08:00pm 21.0 20.2 16.2 74 2.9 W 15 17 8 9 1016.5 1016.5 0.0
26/07:30pm 21.3 19.9 16.5 74 2.9 W 19 20 10 11 1016.3 1016.3 0.0
26/07:00pm 21.6 20.8 16.1 71 3.3 W 15 20 8 11 1016.0 1016.0 0.0
26/06:30pm 22.3 21.6 15.4 65 4.1 WNW 13 17 7 9 1015.8 1015.8 0.0
26/06:00pm 22.7 22.3 15.3 63 4.4 NNW 11 15 6 8 1015.3 1015.3 0.0
26/05:30pm 23.7 23.4 13.3 52 6.0 N 7 11 4 6 1014.9 1014.9 0.0
26/05:00pm 24.2 22.7 13.1 50 6.4 NNE 13 15 7 8 1014.6 1014.6 0.0
26/04:30pm 23.9 22.1 13.2 51 6.2 NNE 15 19 8 10 1014.4 1014.4 0.0
26/04:00pm 23.9 22.3 14.0 54 5.8 NNE 15 19 8 10 1014.4 1014.4 0.0
26/03:30pm 24.0 22.2 14.4 55 5.7 NNE 17 20 9 11 1014.3 1014.3 0.0
26/03:00pm 24.0 22.1 14.1 54 5.8 NNE 17 20 9 11 1014.3 1014.3 0.0
26/02:30pm 23.9 21.7 14.3 55 5.7 NNE 19 20 10 11 1014.3 1014.3 0.0
26/02:00pm 23.9 22.2 14.6 56 5.5 NNE 17 20 9 11 1014.4 1014.4 0.0
26/01:30pm 24.3 22.5 14.4 54 5.9 NNE 17 20 9 11 1014.7 1014.7 0.0
26/01:00pm 24.1 21.4 13.0 50 6.4 NE 19 22 10 12 1015.0 1015.0 0.0
26/12:30pm 24.5 21.4 12.1 46 7.1 ENE 20 24 11 13 1015.4 1015.4 0.0
26/12:00pm 23.4 20.9 12.4 50 6.3 ENE 17 20 9 11 1015.9 1015.9 0.0
26/11:30am 23.4 21.2 12.1 49 6.4 ENE 15 20 8 11 1016.3 1016.3 0.0
26/11:00am 22.8 21.3 11.8 50 6.2 ENE 11 15 6 8 1016.9 1016.9 0.0
26/10:30am 21.4 19.5 11.7 54 5.4 ENE 13 17 7 9 1017.2 1017.2 0.0
26/10:00am 20.7 19.2 11.9 57 4.9 ENE 11 15 6 8 1017.3 1017.3 0.0
26/09:30am 21.3 19.3 11.6 54 5.4 ESE 13 15 7 8 1017.1 1017.1 0.0
26/09:00am 20.4 18.8 11.6 57 4.9 SE 11 15 6 8 1017.0 1017.0 0.0
26/08:30am 17.6 16.2 10.9 65 3.6 SSE 9 11 5 6 1016.7 1016.7 0.0
26/08:00am 16.2 14.2 10.3 68 3.1 S 11 13 6 7 1016.4 1016.4 0.0
26/07:30am 14.3 11.7 9.5 73 2.5 S 13 13 7 7 1016.0 1016.0 0.0
26/07:00am 12.5 10.5 8.6 77 1.9 S 9 11 5 6 1015.5 1015.5 0.0
26/06:30am 12.9 10.5 8.6 75 2.1 S 11 11 6 6 1015.2 1015.2 0.0
26/06:00am 13.3 11.3 8.8 74 2.3 S 9 11 5 6 1014.9 1014.9 0.0
26/05:30am 13.6 11.6 8.7 72 2.5 S 9 13 5 7 1014.4 1014.4 0.0
26/05:00am 14.4 12.8 8.8 69 2.8 S 7 9 4 5 1014.1 1014.1 0.0
26/04:30am 15.1 13.6 9.0 67 3.1 SSE 7 9 4 5 1013.9 1013.9 0.0
26/04:00am 15.3 13.8 9.0 66 3.2 S 7 9 4 5 1013.9 1013.9 0.0
26/03:30am 16.4 15.1 9.8 65 3.5 SSW 7 11 4 6 1013.7 1013.7 0.0
26/03:00am 16.6 14.2 10.2 66 3.4 SW 13 15 7 8 1013.5 1013.5 0.0
26/02:30am 17.1 15.3 10.7 66 3.4 SW 11 13 6 7 1013.2 1013.2 0.0
26/02:00am 17.0 16.0 12.3 74 2.6 W 9 11 5 6 1013.3 1013.3 0.0
26/01:30am 16.4 15.1 12.6 78 2.1 WSW 11 13 6 7 1013.5 1013.5 0.0
26/01:00am 16.8 15.6 12.9 78 2.2 W 11 13 6 7 1013.6 1013.6 0.0
26/12:30am 16.8 15.3 13.1 79 2.1 WSW 13 15 7 8 1013.7 1013.7 0.0
26/12:00am 17.2 15.9 13.7 80 2.0 WSW 13 13 7 7 1013.7 1013.7 0.0
 
Date/Time
WST
Temp
°C
App
Temp
°C
Dew
Point
°C
Rel
Hum
%
Delta-T
°C
Wind Press
QNH
hPa
Press
MSL
hPa
Rain since
9am
mm
Dir  Spd
km/h
Gust
km/h
Spd
kts
Gust
kts
25/11:30pm 18.0 16.5 14.1 78 2.2 WSW 15 19 8 10 1013.6 1013.6 0.0
25/11:00pm 18.5 16.7 14.4 77 2.4 WSW 17 19 9 10 1013.7 1013.7 0.0
25/10:30pm 19.1 17.0 14.6 75 2.6 WSW 19 20 10 11 1013.8 1013.8 0.0
25/10:00pm 19.6 16.8 14.4 72 3.0 WSW 22 28 12 15 1013.7 1013.7 0.0
25/09:30pm 19.9 16.7 14.3 70 3.2 WSW 24 28 13 15 1013.5 1013.5 0.0
25/09:00pm 20.0 17.7 14.6 71 3.1 WSW 20 28 11 15 1013.3 1013.3 0.0
25/08:30pm 20.4 17.8 15.0 71 3.2 WSW 22 28 12 15 1013.3 1013.3 0.0
25/08:00pm 20.7 18.3 15.3 71 3.2 WSW 22 28 12 15 1013.1 1013.1 0.0
25/07:30pm 21.0 18.3 15.5 71 3.3 W 24 30 13 16 1012.9 1012.9 0.0
25/07:00pm 21.4 17.9 15.5 69 3.5 W 28 33 15 18 1012.5 1012.5 0.0
25/06:30pm 21.7 18.2 15.5 68 3.7 W 28 32 15 17 1012.2 1012.2 0.0
25/06:00pm 22.0 18.7 15.1 65 4.1 W 26 33 14 18 1012.0 1012.0 0.0
25/05:30pm 22.8 19.1 14.9 61 4.7 W 28 33 15 18 1011.7 1011.7 0.0
25/05:00pm 23.5 19.8 15.0 59 5.1 W 28 33 15 18 1011.6 1011.6 0.0
25/04:30pm 24.0 19.9 15.0 57 5.4 W 30 35 16 19 1011.3 1011.3 0.0
25/04:00pm 24.7 20.6 13.9 51 6.4 W 28 35 15 19 1011.3 1011.3 0.0
25/03:30pm 24.6 21.3 14.1 52 6.2 W 24 30 13 16 1011.3 1011.3 0.0
25/03:00pm 25.5 23.0 14.0 49 6.8 WNW 20 26 11 14 1011.2 1011.2 0.0
25/02:30pm 26.1 23.6 14.2 48 7.1 WNW 20 24 11 13 1011.3 1011.3 0.0
25/02:00pm 25.7 23.2 13.5 46 7.2 WNW 19 22 10 12 1011.4 1011.4 0.0
25/01:30pm 25.9 23.7 13.4 46 7.3 WNW 17 22 9 12 1011.8 1011.8 0.0
25/01:00pm 25.4 22.9 13.6 48 6.9 WNW 19 22 10 12 1012.4 1012.4 0.0
25/12:30pm 26.1 22.9 11.1 39 8.5 WNW 19 22 10 12 1012.9 1012.9 0.0
25/12:00pm 25.4 22.6 10.1 38 8.5 W 15 17 8 9 1013.4 1013.4 0.0
25/11:30am 24.3 21.4 9.8 40 7.9 W 15 20 8 11 1014.0 1014.0 0.0
25/11:00am 22.5 20.6 10.6 47 6.5 W 11 15 6 8 1014.6 1014.6 0.0
25/10:30am 21.8 20.0 12.1 54 5.5 W 13 17 7 9 1014.8 1014.8 0.0

Other Formats:

Comma delimited format used in spreadsheet applications
http://www.bom.gov.au/fwo/IDW60801/IDW60801.95307.axf

JavaScript Object Notation format (JSON) in row-major order
http://www.bom.gov.au/fwo/IDW60801/IDW60801.95307.json